Time;durP1;ratioP1;P1;durP2;ratioP2;P2;SDS_P1;SDS_P2;PMS_P1;PMS_P2;Temp;Humidity;BMP_temperature;BMP_pressure;BME280_temperature;BME280_humidity;BME280_pressure;Samples;Min_cycle;Max_cycle;Signal;HPM_P1;HPM_P2
2022/05/13 00:03:48;;;;;;;30.60;15.30;;;;;;;13.55;53.01;98746.60;432631;1271;99064;-45
2022/05/13 00:13:55;;;;;;;26.50;13.20;;;;;;;13.52;53.21;98736.20;432662;1271;109363;-45
2022/05/13 00:24:02;;;;;;;26.10;12.80;;;;;;;13.49;53.36;98728.73;432442;1271;98946;-45
2022/05/13 00:34:10;;;;;;;23.60;12.50;;;;;;;13.40;53.33;98728.21;432589;1271;112632;-44
2022/05/13 00:44:18;;;;;;;23.00;11.80;;;;;;;13.37;53.63;98736.05;432656;1271;108899;-42
2022/05/13 00:54:26;;;;;;;20.40;10.80;;;;;;;13.33;53.95;98733.50;432515;1271;99291;-42
2022/05/13 01:04:35;;;;;;;21.50;10.30;;;;;;;13.33;54.27;98732.60;432527;1271;108803;-43
2022/05/13 01:14:42;;;;;;;28.30;11.40;;;;;;;13.29;54.47;98724.79;432402;1271;98157;-46
2022/05/13 01:24:51;;;;;;;22.50;10.80;;;;;;;13.27;55.11;98717.85;432572;1271;112530;-46
2022/05/13 01:34:58;;;;;;;23.30;10.90;;;;;;;13.28;55.41;98716.91;432471;1271;108738;-47
2022/05/13 01:45:07;;;;;;;17.70;9.30;;;;;;;13.14;55.37;98714.61;433235;1257;101575;-42
2022/05/13 01:55:14;;;;;;;20.20;8.70;;;;;;;13.07;55.77;98703.69;432613;1271;108740;-41
2022/05/13 02:05:21;;;;;;;20.90;10.50;;;;;;;13.01;56.09;98700.23;432684;1271;99275;-45
2022/05/13 02:15:29;;;;;;;17.00;8.10;;;;;;;12.94;56.36;98685.59;432587;1271;112594;-42
2022/05/13 02:25:37;;;;;;;22.80;9.60;;;;;;;12.82;56.46;98683.68;432457;1271;108766;-46
2022/05/13 02:35:44;;;;;;;17.70;8.50;;;;;;;12.73;56.87;98678.42;432780;1271;99366;-41
2022/05/13 02:45:51;;;;;;;21.70;10.20;;;;;;;12.72;57.35;98682.71;432605;1271;108807;-42
2022/05/13 02:55:58;;;;;;;20.20;9.50;;;;;;;12.60;57.53;98693.30;432673;1271;98899;-41
2022/05/13 03:06:06;;;;;;;22.20;10.50;;;;;;;12.43;57.57;98679.81;432526;1271;112404;-43
2022/05/13 03:16:18;;;;;;;18.70;8.90;;;;;;;12.26;57.99;98677.41;432459;1271;108710;-45
2022/05/13 03:26:26;;;;;;;20.60;9.40;;;;;;;12.46;58.57;98680.72;432639;1271;99188;-41
2022/05/13 03:36:32;;;;;;;17.80;9.90;;;;;;;12.71;58.90;98686.62;432485;1271;108727;-44
2022/05/13 03:46:39;;;;;;;26.70;11.90;;;;;;;12.81;59.00;98687.59;432611;1271;99263;-44
2022/05/13 03:56:47;;;;;;;26.40;11.20;;;;;;;12.72;59.05;98682.19;432718;1271;112650;-44
2022/05/13 04:17:19;;;;;;;24.40;13.70;;;;;;;13.45;59.44;98682.73;432654;1271;99269;-41
2022/05/13 04:27:26;;;;;;;31.60;13.30;;;;;;;15.05;58.79;98677.67;432417;1271;108810;-43
2022/05/13 04:37:34;;;;;;;29.60;14.50;;;;;;;15.88;57.79;98670.45;432577;1271;99295;-43
2022/05/13 04:58:07;;;;;;;23.10;11.30;;;;;;;16.47;55.92;98684.69;432540;1271;108768;-46
2022/05/13 05:08:16;;;;;;;20.90;10.20;;;;;;;16.83;55.04;98683.48;432618;1271;99276;-45
2022/05/13 05:18:24;;;;;;;12.60;7.40;;;;;;;17.05;54.31;98689.98;432552;1271;108879;-41
2022/05/13 05:28:32;;;;;;;26.40;7.10;;;;;;;17.00;53.63;98689.77;432654;1271;99270;-43
2022/05/13 05:38:40;;;;;;;16.90;4.90;;;;;;;17.26;53.13;98691.48;432530;1271;112400;-42
2022/05/13 05:48:47;;;;;;;17.30;5.30;;;;;;;17.42;52.42;98683.30;432375;1271;107804;-44
2022/05/13 05:58:56;;;;;;;34.10;5.20;;;;;;;18.24;51.72;98676.60;432473;1271;99138;-45
2022/05/13 06:09:04;;;;;;;15.30;4.10;;;;;;;18.53;50.30;98676.23;432541;1273;107895;-45
2022/05/13 06:19:11;;;;;;;14.80;5.30;;;;;;;18.31;49.78;98679.34;432056;1271;637029;-45
2022/05/13 06:29:21;;;;;;;18.10;4.30;;;;;;;18.52;49.65;98683.64;432613;1271;112614;-42
2022/05/13 06:39:28;;;;;;;18.50;5.80;;;;;;;18.91;49.49;98684.60;432558;1271;108822;-42
2022/05/13 06:49:35;;;;;;;42.00;6.10;;;;;;;19.34;48.91;98678.27;432573;1271;98298;-46
2022/05/13 06:59:42;;;;;;;16.60;4.50;;;;;;;19.74;48.45;98667.84;432480;1271;108777;-46
2022/05/13 07:09:49;;;;;;;7.90;2.90;;;;;;;20.03;47.99;98668.36;432658;1271;98892;-43
2022/05/13 07:19:57;;;;;;;4.70;2.40;;;;;;;20.41;47.28;98670.86;432720;1271;112353;-45
2022/05/13 07:30:03;;;;;;;6.60;2.10;;;;;;;20.66;46.71;98672.36;432569;1271;108783;-41
2022/05/13 07:50:34;;;;;;;6.70;1.70;;;;;;;21.36;44.81;98675.58;432588;1273;108807;-41
2022/05/13 08:00:43;;;;;;;42.00;3.80;;;;;;;21.60;44.19;98671.59;432409;1272;98099;-41
2022/05/13 08:10:54;;;;;;;2.60;0.80;;;;;;;22.49;42.53;98674.70;432578;1271;112965;-43
2022/05/13 08:31:08;;;;;;;6.50;1.20;;;;;;;23.18;40.08;98660.98;432510;1272;98847;-41
2022/05/13 08:41:24;;;;;;;6.70;1.50;;;;;;;23.08;38.77;98654.05;432520;1274;107970;-47
2022/05/13 08:51:31;;;;;;;5.60;1.40;;;;;;;23.02;38.39;98648.64;432498;1271;98033;-42
2022/05/13 09:01:43;;;;;;;5.50;1.00;;;;;;;22.92;37.39;98640.05;432474;1271;111505;-41
2022/05/13 09:11:57;;;;;;;4.90;1.00;;;;;;;22.95;36.74;98632.55;432628;1271;108879;-43
2022/05/13 09:22:05;;;;;;;8.30;1.30;;;;;;;23.29;36.93;98613.60;432600;1272;99257;-43
2022/05/13 09:32:13;;;;;;;7.10;1.30;;;;;;;23.74;35.88;98598.10;432603;1273;108854;-43
2022/05/13 09:42:21;;;;;;;32.70;2.80;;;;;;;23.91;35.79;98581.73;432492;1274;99266;-47
2022/05/13 09:52:27;;;;;;;6.10;1.50;;;;;;;24.04;34.66;98565.66;432574;1271;111335;-42
2022/05/13 10:02:35;;;;;;;1.80;0.90;;;;;;;23.69;34.78;98553.92;432644;1274;108834;-44
2022/05/13 10:23:11;;;;;;;1.50;0.90;;;;;;;24.15;34.32;98532.04;432423;1273;109596;-42
2022/05/13 10:33:17;;;;;;;6.90;1.40;;;;;;;24.53;33.91;98518.63;432463;1271;99295;-45
2022/05/13 10:43:22;;;;;;;11.40;1.60;;;;;;;24.64;33.85;98511.68;432555;1273;112494;-45
2022/05/13 10:53:30;;;;;;;2.10;1.60;;;;;;;25.13;33.56;98503.30;432708;1271;108123;-48
2022/05/13 11:03:43;;;;;;;7.40;1.60;;;;;;;25.41;33.52;98491.35;432585;1272;99279;-45
2022/05/13 11:34:14;;;;;;;11.70;1.70;;;;;;;25.53;31.96;98453.52;432433;1272;112560;-41
2022/05/13 11:44:25;;;;;;;5.30;1.30;;;;;;;25.62;32.15;98420.17;432462;1272;109239;-46
2022/05/13 11:54:33;;;;;;;5.30;1.70;;;;;;;25.56;31.95;98394.98;432513;1271;98059;-42
2022/05/13 12:04:38;;;;;;;4.80;1.60;;;;;;;25.52;31.82;98385.86;432599;1273;108776;-47
2022/05/13 12:24:58;;;;;;;2.60;1.80;;;;;;;25.09;32.31;98389.20;432468;1272;112402;-47
2022/05/13 12:45:45;;;;;;;6.00;1.80;;;;;;;25.10;32.43;98361.57;432561;1271;98657;-43
2022/05/13 12:55:52;;;;;;;7.30;2.10;;;;;;;24.85;32.43;98353.12;432416;1273;108856;-41
2022/05/13 13:06:07;;;;;;;7.30;1.50;;;;;;;24.87;32.32;98341.76;432603;1272;98339;-43
2022/05/13 13:16:17;;;;;;;4.10;1.80;;;;;;;25.05;32.45;98325.95;432557;1273;112940;-46
2022/05/13 13:26:25;;;;;;;3.90;1.50;;;;;;;25.44;32.11;98299.06;432500;1271;109646;-45
2022/05/13 13:36:33;;;;;;;5.30;1.60;;;;;;;25.34;31.95;98301.41;432548;1271;99264;-43
2022/05/13 13:47:01;;;;;;;28.40;3.40;;;;;;;24.87;32.47;98280.88;432538;1272;109122;-41
2022/05/13 13:57:20;;;;;;;12.40;2.70;;;;;;;24.39;33.04;98263.51;432542;1273;98068;-45
2022/05/13 14:07:28;;;;;;;10.10;2.40;;;;;;;23.69;33.29;98241.54;432667;1271;112595;-46
2022/05/13 14:17:36;;;;;;;9.50;2.60;;;;;;;23.10;34.06;98232.78;432400;1272;107802;-45
2022/05/13 14:27:43;;;;;;;18.40;3.80;;;;;;;22.51;35.31;98250.23;432411;1273;99304;-43
2022/05/13 14:37:56;;;;;;;8.60;3.40;;;;;;;21.50;39.23;98294.01;432354;1271;107583;-46
2022/05/13 14:58:26;;;;;;;6.10;3.80;;;;;;;17.31;53.44;98409.89;432374;1271;112511;-44
2022/05/13 15:08:42;;;;;;;5.10;3.30;;;;;;;16.79;54.78;98364.81;432434;1271;108936;-44
2022/05/13 15:28:56;;;;;;;5.10;3.90;;;;;;;17.56;55.98;98327.37;432291;1273;108867;-43
2022/05/13 15:39:08;;;;;;;3.30;2.60;;;;;;;17.87;56.46;98314.87;432297;1271;99241;-45
2022/05/13 15:59:42;;;;;;;8.70;2.30;;;;;;;18.44;55.14;98306.64;432308;1272;107965;-41
2022/05/13 16:09:49;;;;;;;19.60;6.30;;;;;;;18.64;55.11;98310.13;432431;1272;99273;-46
2022/05/13 16:19:58;;;;;;;6.90;3.00;;;;;;;18.91;55.39;98315.25;432371;1273;108900;-41
2022/05/13 16:30:07;;;;;;;7.80;3.50;;;;;;;19.14;55.13;98318.80;432452;1271;99257;-42
2022/05/13 16:40:17;;;;;;;3.30;2.40;;;;;;;19.12;55.25;98317.61;432431;1272;112360;-45
2022/05/13 16:50:26;;;;;;;5.10;3.40;;;;;;;19.27;55.15;98322.04;432342;1272;109046;-42
2022/05/13 17:00:34;;;;;;;8.20;5.10;;;;;;;19.34;55.64;98324.70;432409;1271;99299;-44
2022/05/13 17:21:04;;;;;;;10.30;5.30;;;;;;;18.47;56.47;98369.14;432400;1271;99288;-43
2022/05/13 17:31:10;;;;;;;8.10;5.20;;;;;;;17.88;57.68;98369.27;432359;1272;111363;-44
2022/05/13 17:41:18;;;;;;;5.90;4.20;;;;;;;17.67;58.76;98366.02;432349;1272;108805;-44
2022/05/13 17:51:30;;;;;;;5.10;3.90;;;;;;;17.76;59.27;98372.23;432331;1271;99285;-41
2022/05/13 18:01:38;;;;;;;6.80;4.70;;;;;;;17.71;59.40;98390.13;432463;1272;108895;-46
2022/05/13 18:21:52;;;;;;;8.90;5.00;;;;;;;17.21;59.72;98416.00;432211;1272;275254;-42
2022/05/13 18:31:59;;;;;;;9.50;4.80;;;;;;;16.99;59.89;98431.42;432370;1272;108795;-45
2022/05/13 18:52:30;;;;;;;9.50;7.70;;;;;;;16.72;60.13;98476.52;432409;1272;108963;-45
2022/05/13 19:02:38;;;;;;;12.20;5.70;;;;;;;16.58;60.36;98501.84;432370;1271;99289;-45
2022/05/13 19:12:44;;;;;;;;;;;;;;;16.46;60.10;98530.21;432487;1271;111616;-43
2022/05/13 19:22:52;;;;;;;11.90;4.80;;;;;;;16.30;60.04;98555.75;432402;1271;108876;-46
2022/05/13 19:32:59;;;;;;;9.80;5.40;;;;;;;16.11;59.01;98586.16;432538;1272;98034;-43
2022/05/13 19:43:06;;;;;;;17.20;5.70;;;;;;;15.88;58.18;98621.34;432361;1271;108894;-44
2022/05/13 19:53:14;;;;;;;14.20;6.40;;;;;;;15.60;58.14;98638.32;432431;1269;98853;-46
2022/05/13 20:03:21;;;;;;;10.90;8.10;;;;;;;15.27;58.04;98649.73;432384;1271;111306;-45
2022/05/13 20:13:28;;;;;;;12.00;8.80;;;;;;;14.98;57.99;98660.23;432337;1271;108845;-44
2022/05/13 20:33:42;;;;;;;7.30;6.00;;;;;;;14.53;58.11;98670.46;432338;1272;108738;-42
2022/05/13 20:43:49;;;;;;;12.10;5.30;;;;;;;14.33;58.67;98679.77;432409;1271;99250;-46
2022/05/13 20:54:00;;;;;;;13.70;7.50;;;;;;;14.02;58.85;98694.69;432374;1272;112572;-41
2022/05/13 21:04:06;;;;;;;15.70;8.70;;;;;;;13.59;59.47;98714.55;432462;1271;108787;-47
2022/05/13 21:14:13;;;;;;;17.10;10.10;;;;;;;13.28;60.22;98733.95;432384;1271;99263;-45
2022/05/13 21:24:20;;;;;;;17.10;7.30;;;;;;;12.97;60.74;98740.85;432448;1273;109061;-44
2022/05/13 21:44:52;;;;;;;13.80;8.70;;;;;;;12.51;61.38;98754.63;432444;1271;112413;-46
2022/05/13 21:55:00;;;;;;;15.10;11.60;;;;;;;12.35;61.82;98757.52;432370;1271;108834;-43
2022/05/13 22:05:06;;;;;;;19.60;11.60;;;;;;;12.04;61.94;98776.40;432358;1271;98044;-45
2022/05/13 22:15:11;;;;;;;16.60;10.20;;;;;;;11.66;62.24;98783.27;432342;1272;108827;-46
2022/05/13 22:35:25;;;;;;;14.10;9.30;;;;;;;11.55;63.11;98800.45;432389;1271;110972;-44
2022/05/13 22:45:38;;;;;;;13.70;10.00;;;;;;;11.40;63.36;98806.56;432249;1271;108794;-47
2022/05/13 22:55:45;;;;;;;15.60;10.80;;;;;;;11.32;63.58;98807.46;432563;1271;99255;-45
2022/05/13 23:16:22;;;;;;;11.90;7.90;;;;;;;11.25;63.60;98815.77;432370;1271;99289;-45
2022/05/13 23:26:30;;;;;;;9.00;6.30;;;;;;;11.24;63.58;98814.48;432477;1272;112418;-42
2022/05/13 23:46:44;;;;;;;10.40;8.00;;;;;;;10.87;63.89;98804.21;432522;1272;99366;-43
2022/05/13 23:56:52;;;;;;;11.00;7.30;;;;;;;10.58;63.83;98806.52;432269;1272;108835;-47
